createdAt,value
2023-04-01T00:01:01.445Z,12.73
2023-04-01T00:03:34.524Z,12.59
2023-04-01T00:06:08.155Z,12.60
2023-04-01T00:08:40.637Z,12.64
2023-04-01T00:11:13.412Z,12.61
2023-04-01T00:13:46.083Z,12.53
2023-04-01T00:16:22.256Z,12.54
2023-04-01T00:18:55.422Z,12.40
2023-04-01T00:21:27.974Z,12.43
2023-04-01T00:24:00.374Z,12.40
2023-04-01T00:26:32.889Z,12.40
2023-04-01T00:29:05.596Z,12.35
2023-04-01T00:31:38.764Z,12.40
2023-04-01T00:34:11.267Z,12.51
2023-04-01T00:36:43.939Z,12.42
2023-04-01T00:39:16.363Z,12.36
2023-04-01T00:41:49.518Z,12.47
2023-04-01T00:44:26.580Z,12.53
2023-04-01T00:46:59.425Z,12.49
2023-04-01T00:49:36.133Z,12.40
2023-04-01T00:52:10.946Z,12.37
2023-04-01T00:54:43.263Z,12.43
2023-04-01T00:57:22.242Z,12.46
2023-04-01T00:59:57.372Z,12.46
2023-04-01T01:02:30.051Z,12.51
2023-04-01T01:05:02.942Z,12.56
2023-04-01T01:07:43.930Z,12.54
2023-04-01T01:10:23.129Z,12.52
2023-04-01T01:13:07.419Z,12.52
2023-04-01T01:15:47.289Z,12.48
2023-04-01T01:18:26.976Z,12.56
2023-04-01T01:21:23.681Z,12.56
2023-04-01T01:24:39.269Z,12.56
2023-04-01T01:27:13.817Z,12.53
2023-04-01T01:30:19.656Z,12.53
2023-04-01T01:33:22.658Z,12.46
2023-04-01T01:35:58.491Z,12.45
2023-04-01T01:38:34.837Z,12.50
2023-04-01T01:41:11.752Z,12.44
2023-04-01T01:43:48.333Z,12.39
2023-04-01T01:46:25.846Z,12.45
2023-04-01T01:49:00.993Z,12.23
2023-04-01T01:51:34.734Z,12.31
2023-04-01T01:54:07.263Z,12.43
2023-04-01T01:56:41.308Z,12.48
2023-04-01T01:59:16.752Z,12.49
2023-04-01T02:01:53.353Z,12.43
2023-04-01T02:04:28.166Z,12.43
2023-04-01T02:07:04.834Z,12.47
2023-04-01T02:09:37.794Z,12.53
2023-04-01T02:12:14.032Z,12.41
2023-04-01T02:14:53.755Z,12.36
2023-04-01T02:17:28.951Z,12.38
2023-04-01T02:20:06.650Z,12.35
2023-04-01T02:22:43.092Z,12.35
2023-04-01T02:25:20.126Z,12.38
2023-04-01T02:27:52.870Z,12.43
2023-04-01T02:30:27.779Z,12.45
2023-04-01T02:33:01.187Z,12.46
2023-04-01T02:35:34.874Z,12.46
2023-04-01T02:38:08.999Z,12.42
2023-04-01T02:40:51.661Z,12.34
2023-04-01T02:43:25.843Z,12.35
2023-04-01T02:45:58.180Z,12.44
2023-04-01T02:48:30.846Z,12.46
2023-04-01T02:51:03.673Z,12.34
2023-04-01T02:53:36.329Z,12.36
2023-04-01T02:56:09.374Z,12.32
2023-04-01T02:58:41.877Z,12.45
2023-04-01T03:01:14.356Z,12.41
2023-04-01T03:03:47.102Z,12.34
2023-04-01T03:06:20.049Z,12.27
2023-04-01T03:08:53.444Z,12.39
2023-04-01T03:11:27.324Z,12.37
2023-04-01T03:13:59.753Z,12.32
2023-04-01T03:16:32.268Z,12.32
2023-04-01T03:19:04.983Z,12.39
2023-04-01T03:21:38.037Z,12.41
2023-04-01T03:24:11.308Z,12.44
2023-04-01T03:26:44.259Z,12.43
2023-04-01T03:29:21.538Z,12.29
2023-04-01T03:31:59.947Z,12.23
2023-04-01T03:34:32.547Z,12.27
2023-04-01T03:37:05.265Z,12.24
2023-04-01T03:39:38.064Z,12.31
2023-04-01T03:42:10.968Z,12.25
2023-04-01T03:44:43.514Z,12.23
2023-04-01T03:47:16.482Z,12.23
2023-04-01T03:49:50.024Z,12.30
2023-04-01T03:52:22.980Z,12.27
2023-04-01T03:54:56.681Z,12.27
2023-04-01T03:57:29.609Z,12.33
2023-04-01T04:00:03.314Z,12.37
2023-04-01T04:02:46.741Z,12.38
2023-04-01T04:05:21.494Z,12.36
2023-04-01T04:07:55.218Z,12.40
2023-04-01T04:10:28.392Z,12.30
2023-04-01T04:13:01.340Z,12.38
2023-04-01T04:15:35.101Z,12.48
2023-04-01T04:18:08.308Z,12.54
2023-04-01T04:20:46.698Z,12.49
2023-04-01T04:23:19.933Z,12.48
2023-04-01T04:26:01.223Z,12.43
2023-04-01T04:28:34.731Z,12.47
2023-04-01T04:31:09.225Z,12.45
2023-04-01T04:33:41.733Z,12.40
2023-04-01T04:36:14.427Z,12.34
2023-04-01T04:38:47.555Z,12.33
2023-04-01T04:41:23.476Z,12.32
2023-04-01T04:43:59.618Z,12.32
2023-04-01T04:46:32.910Z,12.22
2023-04-01T04:49:14.584Z,12.27
2023-04-01T04:51:47.481Z,12.31
2023-04-01T04:54:21.582Z,12.28
2023-04-01T04:57:00.571Z,12.30
2023-04-01T04:59:34.842Z,12.32
2023-04-01T05:02:30.148Z,12.35
2023-04-01T05:05:03.203Z,12.32
2023-04-01T05:07:38.363Z,12.28
2023-04-01T05:10:12.240Z,12.29
2023-04-01T05:12:45.105Z,12.28
2023-04-01T05:15:22.708Z,12.26
2023-04-01T05:17:56.498Z,12.27
2023-04-01T05:20:28.800Z,12.28
2023-04-01T05:23:01.945Z,12.33
2023-04-01T05:25:35.921Z,12.37
2023-04-01T05:28:09.101Z,12.37
2023-04-01T05:30:43.982Z,12.40
2023-04-01T05:33:28.014Z,12.39
2023-04-01T05:36:09.881Z,12.35
2023-04-01T05:38:43.590Z,12.36
2023-04-01T05:41:18.329Z,12.36
2023-04-01T05:43:51.244Z,12.37
2023-04-01T05:46:42.552Z,12.40
2023-04-01T05:49:27.707Z,12.25
2023-04-01T05:52:01.738Z,12.21
2023-04-01T05:54:35.505Z,12.15
2023-04-01T05:57:08.549Z,12.18
2023-04-01T05:59:41.745Z,12.25
2023-04-01T06:02:14.702Z,12.23
2023-04-01T06:04:48.097Z,12.15
2023-04-01T06:07:21.591Z,12.18
2023-04-01T06:09:53.973Z,12.13
2023-04-01T06:12:47.647Z,12.18
2023-04-01T06:15:33.498Z,12.23
2023-04-01T06:18:38.259Z,12.24
2023-04-01T06:21:29.549Z,12.26
2023-04-01T06:24:27.848Z,12.21
2023-04-01T06:27:05.289Z,12.24
2023-04-01T06:29:52.988Z,12.25
2023-04-01T06:32:40.026Z,12.26
2023-04-01T06:35:30.181Z,12.23
2023-04-01T06:38:41.642Z,12.26
2023-04-01T06:41:32.940Z,12.31
2023-04-01T06:44:20.489Z,12.35
2023-04-01T06:47:30.631Z,12.39
2023-04-01T06:50:28.747Z,12.39
2023-04-01T06:53:23.700Z,12.43
2023-04-01T06:56:19.410Z,12.43
2023-04-01T06:59:08.233Z,12.45
2023-04-01T07:01:45.041Z,12.47
2023-04-01T07:04:21.907Z,12.46
2023-04-01T07:06:59.666Z,12.49
2023-04-01T07:09:36.935Z,12.39
2023-04-01T07:12:42.250Z,12.33
2023-04-01T07:15:58.810Z,12.34
2023-04-01T07:18:39.880Z,12.29
2023-04-01T07:21:21.813Z,12.31
2023-04-01T07:23:57.143Z,12.33
2023-04-01T07:26:38.643Z,12.27
2023-04-01T07:29:20.918Z,12.22
2023-04-01T07:32:14.332Z,12.32
2023-04-01T07:34:57.833Z,12.24
2023-04-01T07:37:35.394Z,12.22
2023-04-01T07:40:19.429Z,12.16
2023-04-01T07:43:10.071Z,12.22
2023-04-01T07:45:53.143Z,12.18
2023-04-01T07:48:34.063Z,12.25
2023-04-01T07:51:14.549Z,12.25
2023-04-01T07:53:54.634Z,12.42
2023-04-01T07:56:34.652Z,12.47
2023-04-01T07:59:14.148Z,12.46
2023-04-01T08:02:24.241Z,12.44
2023-04-01T08:05:07.058Z,12.49
2023-04-01T08:07:47.931Z,12.50
2023-04-01T08:10:54.122Z,12.53
2023-04-01T08:13:55.509Z,12.61
2023-04-01T08:16:54.619Z,12.70
2023-04-01T08:19:42.995Z,12.77
2023-04-01T08:22:22.368Z,12.81
2023-04-01T08:24:58.399Z,12.85
2023-04-01T08:27:39.571Z,13.03
2023-04-01T08:30:23.621Z,13.11
2023-04-01T08:33:02.801Z,13.03
2023-04-01T08:35:40.724Z,13.18
2023-04-01T08:38:20.229Z,13.22
2023-04-01T08:41:00.853Z,13.30
2023-04-01T08:44:20.509Z,13.29
2023-04-01T08:47:28.569Z,13.38
2023-04-01T08:50:33.150Z,13.44
2023-04-01T08:53:37.737Z,13.54
2023-04-01T08:56:18.838Z,13.55
2023-04-01T08:59:07.323Z,13.50
2023-04-01T09:02:08.753Z,13.42
2023-04-01T09:05:31.505Z,13.44
2023-04-01T09:08:19.505Z,13.42
2023-04-01T09:11:10.373Z,13.39
2023-04-01T09:14:28.737Z,13.44
2023-04-01T09:17:38.055Z,13.40
2023-04-01T09:20:48.281Z,13.49
2023-04-01T09:23:39.181Z,13.50
2023-04-01T09:26:34.518Z,13.51
2023-04-01T09:29:21.752Z,13.53
2023-04-01T09:32:13.369Z,13.50
2023-04-01T09:35:25.714Z,13.52
2023-04-01T09:38:15.079Z,13.51
2023-04-01T09:40:56.997Z,13.50
2023-04-01T09:44:02.836Z,13.51
2023-04-01T09:46:56.746Z,13.43
2023-04-01T09:49:48.319Z,13.37
2023-04-01T09:52:34.293Z,13.46
2023-04-01T09:55:56.596Z,13.50
2023-04-01T09:58:52.834Z,13.48
2023-04-01T10:01:59.797Z,13.42
2023-04-01T10:05:02.918Z,13.39
2023-04-01T10:08:07.733Z,13.41
2023-04-01T10:11:28.340Z,13.35
2023-04-01T10:14:28.551Z,13.31
2023-04-01T10:17:31.934Z,13.31
2023-04-01T10:20:38.177Z,13.36
2023-04-01T10:23:29.955Z,13.13
2023-04-01T10:26:37.605Z,13.15
2023-04-01T10:30:21.018Z,13.21
2023-04-01T10:33:38.272Z,13.15
2023-04-01T10:36:50.250Z,13.13
2023-04-01T10:40:05.038Z,13.05
2023-04-01T10:43:32.654Z,12.79
2023-04-01T10:46:50.157Z,12.81
2023-04-01T10:49:46.752Z,12.85
2023-04-01T10:52:49.219Z,12.96
2023-04-01T10:55:49.196Z,12.88
2023-04-01T10:59:02.772Z,12.87
2023-04-01T11:02:53.542Z,12.79
2023-04-01T11:06:28.237Z,12.66
2023-04-01T11:09:39.934Z,12.79
2023-04-01T11:12:51.335Z,12.72
2023-04-01T11:15:59.795Z,12.75
2023-04-01T11:19:29.942Z,12.84
2023-04-01T11:22:24.407Z,12.87
2023-04-01T11:25:31.469Z,12.76
2023-04-01T11:28:52.578Z,12.78
2023-04-01T11:31:44.524Z,12.86
2023-04-01T11:34:27.095Z,12.76
2023-04-01T11:37:13.348Z,12.76
2023-04-01T11:40:02.301Z,12.66
2023-04-01T11:43:00.102Z,12.63
2023-04-01T11:46:17.445Z,12.65
2023-04-01T11:49:03.231Z,12.68
2023-04-01T11:52:00.483Z,12.63
2023-04-01T11:54:49.765Z,12.62
2023-04-01T11:57:48.328Z,12.65
2023-04-01T12:00:36.616Z,12.65
2023-04-01T12:03:32.021Z,12.64
2023-04-01T12:06:04.184Z,12.69
2023-04-01T12:08:42.880Z,12.79
2023-04-01T12:11:23.717Z,12.71
2023-04-01T12:14:05.468Z,12.77
2023-04-01T12:17:03.199Z,12.75
2023-04-01T12:19:46.813Z,12.75
2023-04-01T12:22:41.248Z,12.70
2023-04-01T12:25:30.778Z,12.69
2023-04-01T12:28:15.616Z,12.65
2023-04-01T12:31:03.887Z,12.55
2023-04-01T12:34:24.077Z,12.56
2023-04-01T12:37:09.797Z,12.53
2023-04-01T12:39:54.231Z,12.50
2023-04-01T12:42:39.109Z,12.51
2023-04-01T12:45:29.245Z,12.36
2023-04-01T12:48:37.253Z,12.40
2023-04-01T12:51:24.358Z,12.48
2023-04-01T12:54:18.906Z,12.43
2023-04-01T12:57:05.842Z,12.39
2023-04-01T12:59:58.580Z,12.33
2023-04-01T13:02:42.478Z,12.29
2023-04-01T13:05:29.342Z,12.39
2023-04-01T13:08:08.244Z,12.30
2023-04-01T13:10:58.179Z,12.18
2023-04-01T13:13:58.436Z,12.04
2023-04-01T13:16:34.543Z,12.07
2023-04-01T13:19:12.358Z,12.09
2023-04-01T13:21:56.629Z,12.22
2023-04-01T13:24:53.488Z,12.23
2023-04-01T13:27:33.081Z,12.31
2023-04-01T13:30:24.558Z,12.27
2023-04-01T13:33:05.094Z,12.36
2023-04-01T13:35:47.676Z,12.34
2023-04-01T13:38:39.540Z,12.39
2023-04-01T13:41:23.879Z,12.50
2023-04-01T13:44:02.872Z,12.42
2023-04-01T13:46:54.604Z,12.49
2023-04-01T13:50:02.335Z,12.61
2023-04-01T13:53:16.669Z,12.58
2023-04-01T13:56:05.368Z,12.67
2023-04-01T13:58:51.583Z,12.54
2023-04-01T14:01:33.729Z,12.65
2023-04-01T14:04:36.103Z,12.61
2023-04-01T14:07:34.988Z,12.52
2023-04-01T14:10:27.770Z,12.59
2023-04-01T14:13:09.235Z,12.50
2023-04-01T14:15:52.883Z,12.35
2023-04-01T14:18:43.962Z,12.35
2023-04-01T14:21:25.659Z,12.51
2023-04-01T14:24:22.640Z,12.48
2023-04-01T14:27:34.891Z,12.53
2023-04-01T14:30:29.532Z,12.47
2023-04-01T14:33:09.353Z,12.31
2023-04-01T14:35:48.643Z,12.40
2023-04-01T14:38:37.907Z,12.41
2023-04-01T14:41:23.040Z,12.28
2023-04-01T14:44:04.978Z,12.39
2023-04-01T14:47:16.139Z,12.29
2023-04-01T14:49:51.885Z,12.33
2023-04-01T14:52:30.849Z,12.39
2023-04-01T14:55:13.423Z,12.35
2023-04-01T14:57:59.759Z,12.34
2023-04-01T15:00:49.996Z,12.21
2023-04-01T15:03:28.784Z,12.06
2023-04-01T15:06:24.035Z,12.14
2023-04-01T15:09:05.055Z,12.15
2023-04-01T15:11:50.542Z,12.25
2023-04-01T15:14:42.620Z,12.30
2023-04-01T15:17:39.650Z,12.21
2023-04-01T15:20:39.089Z,12.08
2023-04-01T15:23:28.135Z,12.07
2023-04-01T15:26:30.658Z,12.00
2023-04-01T15:29:20.157Z,12.14
2023-04-01T15:31:59.205Z,12.02
2023-04-01T15:34:38.499Z,12.08
2023-04-01T15:37:21.819Z,12.01
2023-04-01T15:40:00.051Z,11.89
2023-04-01T15:42:54.500Z,11.94
2023-04-01T15:45:44.254Z,11.95
2023-04-01T15:48:29.680Z,11.94
2023-04-01T15:51:13.953Z,11.89
2023-04-01T15:53:59.201Z,11.92
2023-04-01T15:56:45.903Z,11.84
2023-04-01T15:59:32.351Z,11.93
2023-04-01T16:02:16.765Z,11.80
2023-04-01T16:04:59.491Z,11.73
2023-04-01T16:07:57.688Z,11.74
2023-04-01T16:10:54.952Z,11.76
2023-04-01T16:13:39.220Z,11.75
2023-04-01T16:16:25.987Z,11.59
2023-04-01T16:19:25.258Z,11.70
2023-04-01T16:22:03.724Z,11.79
2023-04-01T16:24:43.132Z,11.79
2023-04-01T16:27:21.411Z,11.74
2023-04-01T16:29:59.784Z,11.67
2023-04-01T16:32:42.966Z,11.52
2023-04-01T16:35:32.304Z,11.66
2023-04-01T16:38:13.544Z,11.65
2023-04-01T16:40:55.547Z,11.62
2023-04-01T16:43:33.124Z,11.68
2023-04-01T16:46:24.878Z,11.70
2023-04-01T16:49:16.106Z,11.74
2023-04-01T16:51:56.020Z,11.55
2023-04-01T16:54:38.877Z,11.57
2023-04-01T16:57:24.199Z,11.56
2023-04-01T17:00:06.613Z,11.61
2023-04-01T17:02:47.143Z,11.56
2023-04-01T17:05:19.794Z,11.51
2023-04-01T17:08:08.473Z,11.42
2023-04-01T17:10:51.959Z,11.26
2023-04-01T17:13:36.590Z,11.48
2023-04-01T17:16:55.300Z,11.48
2023-04-01T17:19:43.610Z,11.49
2023-04-01T17:22:33.616Z,11.58
2023-04-01T17:25:27.767Z,11.51
2023-04-01T17:28:07.751Z,11.30
2023-04-01T17:30:50.909Z,11.22
2023-04-01T17:33:41.017Z,11.30
2023-04-01T17:36:24.933Z,11.29
2023-04-01T17:39:19.145Z,11.15
2023-04-01T17:41:56.963Z,11.27
2023-04-01T17:44:49.789Z,11.25
2023-04-01T17:47:46.570Z,11.27
2023-04-01T17:50:29.804Z,11.23
2023-04-01T17:53:24.276Z,11.26
2023-04-01T17:56:11.316Z,11.17
2023-04-01T17:58:50.949Z,10.98
2023-04-01T18:01:37.303Z,10.99
2023-04-01T18:04:27.016Z,10.89
2023-04-01T18:07:22.315Z,10.88
2023-04-01T18:10:10.332Z,10.86
2023-04-01T18:12:59.138Z,10.86
2023-04-01T18:15:39.561Z,10.72
2023-04-01T18:18:36.264Z,10.63
2023-04-01T18:21:18.274Z,10.62
2023-04-01T18:24:02.292Z,10.80
2023-04-01T18:26:39.379Z,10.73
2023-04-01T18:29:26.848Z,10.79
2023-04-01T18:32:15.658Z,10.53
2023-04-01T18:34:57.196Z,10.54
2023-04-01T18:37:33.738Z,10.58
2023-04-01T18:40:19.564Z,10.54
2023-04-01T18:43:02.456Z,10.70
2023-04-01T18:45:40.098Z,10.70
2023-04-01T18:48:25.688Z,10.75
2023-04-01T18:51:03.536Z,10.83
2023-04-01T18:53:48.104Z,10.67
2023-04-01T18:56:31.625Z,10.56
2023-04-01T18:59:13.413Z,10.31
2023-04-01T19:01:55.032Z,10.27
2023-04-01T19:04:37.836Z,10.14
2023-04-01T19:07:43.676Z,10.04
2023-04-01T19:10:29.339Z,10.01
2023-04-01T19:13:18.977Z,10.05
2023-04-01T19:16:02.476Z,10.13
2023-04-01T19:18:56.630Z,10.14
2023-04-01T19:21:36.128Z,10.16
2023-04-01T19:24:50.863Z,10.13
2023-04-01T19:27:35.766Z,10.05
2023-04-01T19:30:20.119Z,9.97
2023-04-01T19:33:04.793Z,10.00
2023-04-01T19:35:45.801Z,9.80
2023-04-01T19:38:29.127Z,9.58
2023-04-01T19:41:08.001Z,9.65
2023-04-01T19:43:52.776Z,9.60
2023-04-01T19:46:33.153Z,9.59
2023-04-01T19:49:24.068Z,9.49
2023-04-01T19:52:06.291Z,9.47
2023-04-01T19:54:46.845Z,9.75
2023-04-01T19:57:30.267Z,9.79
2023-04-01T20:00:09.230Z,9.59
2023-04-01T20:02:59.199Z,9.46
2023-04-01T20:05:48.690Z,9.53
2023-04-01T20:08:31.104Z,9.45
2023-04-01T20:11:16.788Z,9.47
2023-04-01T20:14:00.427Z,9.58
2023-04-01T20:17:05.320Z,9.51
2023-04-01T20:19:45.517Z,9.53
2023-04-01T20:23:02.320Z,9.49
2023-04-01T20:25:42.509Z,9.57
2023-04-01T20:28:27.712Z,9.50
2023-04-01T20:31:12.370Z,9.62
2023-04-01T20:34:10.121Z,9.54
2023-04-01T20:36:57.048Z,9.48
2023-04-01T20:39:47.564Z,9.59
2023-04-01T20:42:45.321Z,9.52
2023-04-01T20:45:35.491Z,9.25
2023-04-01T20:48:47.246Z,9.26
2023-04-01T20:51:24.347Z,9.36
2023-04-01T20:54:08.011Z,9.22
2023-04-01T20:56:48.281Z,9.25
2023-04-01T20:59:53.346Z,9.21
2023-04-01T21:02:39.052Z,9.19
2023-04-01T21:05:41.070Z,9.24
2023-04-01T21:08:24.466Z,9.29
2023-04-01T21:11:04.037Z,9.38
2023-04-01T21:13:52.965Z,9.42
2023-04-01T21:16:36.678Z,9.43
2023-04-01T21:19:23.507Z,9.38
2023-04-01T21:22:13.360Z,9.33
2023-04-01T21:25:10.742Z,9.31
2023-04-01T21:27:57.877Z,9.19
2023-04-01T21:31:04.946Z,9.23
2023-04-01T21:33:52.210Z,9.34
2023-04-01T21:36:47.124Z,9.24
2023-04-01T21:39:36.543Z,9.19
2023-04-01T21:42:22.075Z,9.06
2023-04-01T21:45:05.358Z,9.15
2023-04-01T21:48:18.835Z,9.12
2023-04-01T21:51:08.454Z,9.09
2023-04-01T21:54:22.920Z,9.13
2023-04-01T21:57:25.391Z,9.03
2023-04-01T22:00:19.770Z,9.03
2023-04-01T22:03:28.627Z,9.14
2023-04-01T22:06:11.105Z,9.20
2023-04-01T22:08:52.644Z,9.25
2023-04-01T22:11:35.585Z,9.11
2023-04-01T22:14:13.851Z,9.00
2023-04-01T22:16:55.312Z,8.98
2023-04-01T22:19:38.118Z,8.92
2023-04-01T22:22:19.358Z,8.84
2023-04-01T22:25:02.965Z,8.77
2023-04-01T22:27:43.934Z,8.77
2023-04-01T22:30:24.956Z,8.76
2023-04-01T22:33:04.614Z,8.58
2023-04-01T22:35:43.498Z,8.68
2023-04-01T22:38:26.014Z,8.80
2023-04-01T22:41:08.203Z,8.86
2023-04-01T22:43:44.304Z,8.94
2023-04-01T22:46:38.734Z,8.68
2023-04-01T22:49:17.937Z,8.63
2023-04-01T22:51:55.477Z,8.91
2023-04-01T22:54:36.933Z,8.83
2023-04-01T22:57:16.500Z,8.76
2023-04-01T22:59:55.261Z,8.68
2023-04-01T23:02:32.925Z,8.71
2023-04-01T23:05:11.983Z,8.54
2023-04-01T23:07:50.201Z,8.68
2023-04-01T23:10:28.164Z,8.62
2023-04-01T23:13:04.247Z,8.37
2023-04-01T23:15:38.651Z,8.42
2023-04-01T23:18:15.264Z,8.53
2023-04-01T23:21:01.050Z,8.64
2023-04-01T23:23:47.953Z,8.55
2023-04-01T23:26:27.112Z,8.62
2023-04-01T23:29:01.237Z,8.51
2023-04-01T23:31:44.347Z,8.69
2023-04-01T23:34:30.323Z,8.54
2023-04-01T23:37:07.377Z,8.64
2023-04-01T23:39:42.246Z,8.58
2023-04-01T23:42:21.803Z,8.71
2023-04-01T23:44:57.948Z,8.67
2023-04-01T23:47:35.186Z,8.65
2023-04-01T23:50:13.077Z,8.71
2023-04-01T23:52:49.130Z,8.72
2023-04-01T23:55:24.926Z,8.67
2023-04-01T23:58:16.462Z,8.49
